Time;durP1;ratioP1;P1;durP2;ratioP2;P2;SDS_P1;SDS_P2;PMS_P1;PMS_P2;Temp;Humidity;BMP_temperature;BMP_pressure;BME280_temperature;BME280_humidity;BME280_pressure;Samples;Min_cycle;Max_cycle;Signal;HPM_P1;HPM_P2
2023/05/08 00:01:34;;;;;;;3.15;2.35;;;18.00;72.90;;;;;;10365637;28;20392;-53
2023/05/08 00:06:34;;;;;;;2.70;2.20;;;18.00;72.80;;;;;;10366031;28;20062;-54
2023/05/08 00:11:35;;;;;;;3.15;2.38;;;18.00;72.80;;;;;;10364846;28;20030;-52
2023/05/08 00:16:36;;;;;;;2.88;2.30;;;17.90;72.80;;;;;;10364838;28;20028;-55
2023/05/08 00:21:36;;;;;;;3.63;2.38;;;18.00;72.80;;;;;;10364575;28;20030;-53
2023/05/08 00:26:37;;;;;;;2.92;2.35;;;18.00;72.80;;;;;;10348183;28;20067;-55
2023/05/08 00:31:38;;;;;;;3.00;2.65;;;17.90;72.80;;;;;;10377270;28;20025;-54
2023/05/08 00:36:38;;;;;;;2.80;2.50;;;17.90;73.10;;;;;;10365913;28;20025;-53
2023/05/08 00:41:39;;;;;;;4.38;3.00;;;17.90;72.70;;;;;;10365717;28;20026;-53
2023/05/08 00:46:41;;;;;;;2.97;2.50;;;17.90;72.70;;;;;;10363233;28;20112;-55
2023/05/08 00:51:45;;;;;;;3.80;2.22;;;17.90;72.70;;;;;;10363870;28;20076;-55
2023/05/08 00:56:47;;;;;;;3.10;2.80;;;17.90;72.70;;;;;;10363799;28;20160;-55
2023/05/08 01:01:49;;;;;;;4.40;2.72;;;17.90;72.70;;;;;;10363774;28;20897;-53
2023/05/08 01:06:50;;;;;;;3.92;2.20;;;17.90;72.70;;;;;;10363435;28;20054;-53
2023/05/08 01:12:24;;;;;;;2.88;2.38;;;17.90;72.70;;;;;;10346834;28;20545;-54
2023/05/08 01:18:00;;;;;;;2.55;2.35;;;17.90;72.60;;;;;;10364371;28;20038;-52
2023/05/08 01:23:45;;;;;;;2.63;2.17;;;17.90;72.60;;;;;;10337779;28;20011;-53
2023/05/08 01:29:27;;;;;;;2.90;2.63;;;17.90;72.60;;;;;;10369555;28;20068;-55
2023/05/08 01:34:32;;;;;;;2.80;2.22;;;17.90;72.60;;;;;;10375649;28;20014;-55
2023/05/08 01:40:20;;;;;;;2.50;2.20;;;17.90;72.50;;;;;;10362681;28;20026;-53
2023/05/08 01:45:43;;;;;;;3.08;2.70;;;17.90;72.40;;;;;;10362870;28;20029;-54
2023/05/08 01:50:48;;;;;;;3.00;2.45;;;17.80;72.40;;;;;;10347095;28;20058;-53
2023/05/08 01:55:54;;;;;;;3.53;2.60;;;17.90;72.40;;;;;;10362405;28;20025;-52
2023/05/08 02:00:56;;;;;;;3.45;2.47;;;17.90;72.40;;;;;;10369810;28;20061;-53
2023/05/08 02:05:59;;;;;;;2.60;2.25;;;17.80;72.30;;;;;;10346966;28;20077;-54
2023/05/08 02:11:02;;;;;;;3.28;2.60;;;17.90;72.30;;;;;;10369825;28;20029;-51
2023/05/08 02:16:04;;;;;;;3.50;2.38;;;17.80;72.20;;;;;;10370320;28;20028;-54
2023/05/08 02:21:06;;;;;;;3.05;2.50;;;17.80;72.20;;;;;;10350599;28;20117;-54
2023/05/08 02:26:08;;;;;;;3.03;2.25;;;17.80;72.20;;;;;;10370344;28;20014;-54
2023/05/08 02:31:11;;;;;;;3.10;2.50;;;17.80;72.20;;;;;;10378080;28;20597;-55
2023/05/08 02:36:17;;;;;;;2.42;2.15;;;17.80;72.20;;;;;;10371247;28;20064;-53
2023/05/08 02:41:24;;;;;;;2.83;2.13;;;17.80;72.10;;;;;;10370247;28;20034;-53
2023/05/08 02:46:57;;;;;;;3.03;2.42;;;17.80;72.10;;;;;;10352970;28;20030;-53
2023/05/08 02:52:31;;;;;;;2.72;2.53;;;17.80;72.10;;;;;;10368541;28;20528;-54
2023/05/08 02:58:11;;;;;;;2.85;2.40;;;17.80;72.10;;;;;;10367797;28;20034;-53
2023/05/08 03:03:39;;;;;;;2.28;2.05;;;17.80;72.10;;;;;;10368014;28;20057;-54
2023/05/08 03:08:41;;;;;;;3.10;1.80;;;17.70;72.00;;;;;;10351014;28;20018;-53
2023/05/08 03:13:44;;;;;;;2.55;1.83;;;17.80;72.00;;;;;;10368984;28;20022;-54
2023/05/08 03:18:55;;;;;;;2.60;2.35;;;17.70;72.00;;;;;;10338097;28;20061;-50
2023/05/08 03:23:59;;;;;;;2.97;2.60;;;17.80;72.10;;;;;;10367631;28;20022;-54
2023/05/08 03:29:01;;;;;;;2.58;2.13;;;17.70;72.00;;;;;;10367229;28;20038;-55
2023/05/08 03:34:03;;;;;;;3.03;2.15;;;17.70;72.00;;;;;;10394994;28;20025;-55
2023/05/08 03:39:04;;;;;;;2.83;2.22;;;17.70;72.00;;;;;;10366241;28;20064;-54
2023/05/08 03:44:06;;;;;;;2.53;2.30;;;17.70;72.00;;;;;;10365387;28;20022;-55
2023/05/08 03:49:08;;;;;;;3.00;2.20;;;17.70;71.90;;;;;;10346673;28;20026;-53
2023/05/08 03:54:09;;;;;;;3.03;2.05;;;17.70;72.00;;;;;;10366612;28;20611;-54
2023/05/08 03:59:41;;;;;;;2.15;1.95;;;17.70;72.00;;;;;;10365607;28;20030;-54
2023/05/08 04:04:46;;;;;;;2.70;2.10;;;17.70;72.00;;;;;;10366896;28;20537;-54
2023/05/08 04:09:59;;;;;;;3.47;2.45;;;17.70;71.90;;;;;;10365527;28;20129;-52
2023/05/08 04:15:10;;;;;;;3.95;2.60;;;17.70;71.90;;;;;;10365904;28;20116;-55
2023/05/08 04:20:18;;;;;;;2.80;2.30;;;17.70;71.90;;;;;;10365079;28;20018;-55
2023/05/08 04:25:20;;;;;;;2.95;2.25;;;17.70;72.50;;;;;;10364793;28;20529;-54
2023/05/08 04:30:21;;;;;;;2.70;2.40;;;17.70;71.90;;;;;;10368193;28;20049;-53
2023/05/08 04:35:21;;;;;;;3.50;2.58;;;17.70;71.90;;;;;;10373481;28;20033;-54
2023/05/08 04:40:22;;;;;;;3.15;2.40;;;17.70;71.90;;;;;;10363811;28;20030;-55
2023/05/08 04:45:23;;;;;;;2.75;2.25;;;17.70;71.80;;;;;;10343451;28;20483;-52
2023/05/08 04:50:24;;;;;;;4.03;2.90;;;17.70;71.80;;;;;;10362586;28;20151;-52
2023/05/08 04:55:24;;;;;;;4.03;3.20;;;17.70;72.70;;;;;;10340386;28;20025;-54
2023/05/08 05:00:25;;;;;;;4.43;3.78;;;17.90;72.90;;;;;;10363451;28;20079;-50
2023/05/08 05:05:26;;;;;;;6.93;3.50;;;18.00;72.70;;;;;;10363136;28;20044;-53
2023/05/08 05:10:26;;;;;;;5.45;3.90;;;18.00;73.10;;;;;;10363987;28;20018;-53
2023/05/08 05:15:27;;;;;;;13.35;3.80;;;18.10;73.10;;;;;;10362505;28;20377;-55
2023/05/08 05:20:28;;;;;;;9.07;4.03;;;18.10;73.20;;;;;;10359440;28;20386;-58
2023/05/08 05:25:28;;;;;;;6.82;3.60;;;18.20;73.20;;;;;;10364178;28;20101;-54
2023/05/08 05:30:29;;;;;;;7.90;3.70;;;18.30;73.40;;;;;;10382973;28;20052;-52
2023/05/08 05:35:30;;;;;;;6.55;3.50;;;18.30;73.10;;;;;;10366202;28;20109;-53
2023/05/08 05:40:30;;;;;;;8.75;3.85;;;18.30;73.50;;;;;;10360762;28;20036;-54
2023/05/08 05:45:31;;;;;;;9.27;3.78;;;18.30;73.10;;;;;;10360305;28;20064;-52
2023/05/08 05:50:32;;;;;;;9.68;4.03;;;18.30;73.10;;;;;;10344047;28;20029;-52
2023/05/08 05:55:34;;;;;;;16.33;4.65;;;18.20;73.50;;;;;;10315144;28;20042;-52
2023/05/08 06:00:35;;;;;;;18.73;5.18;;;18.20;73.50;;;;;;10356951;28;20034;-53
2023/05/08 06:05:36;;;;;;;12.00;5.50;;;18.20;73.50;;;;;;10344078;28;20061;-51
2023/05/08 06:10:37;;;;;;;9.27;5.07;;;18.20;73.80;;;;;;10356653;28;20840;-49
2023/05/08 06:15:37;;;;;;;8.60;4.85;;;18.30;73.70;;;;;;10355015;28;20113;-51
2023/05/08 06:20:38;;;;;;;14.13;4.90;;;18.20;73.40;;;;;;10374852;28;20465;-49
2023/05/08 06:25:39;;;;;;;11.70;4.85;;;18.20;73.60;;;;;;10346391;28;20125;-51
2023/05/08 06:30:39;;;;;;;9.85;5.00;;;18.10;73.50;;;;;;10365414;28;20072;-53
2023/05/08 06:35:40;;;;;;;9.70;4.70;;;18.10;73.50;;;;;;10366566;28;20479;-52
2023/05/08 06:40:45;;;;;;;10.82;4.38;;;18.10;73.50;;;;;;10359740;28;20036;-54
2023/05/08 06:45:45;;;;;;;8.43;4.88;;;18.10;73.40;;;;;;10362490;28;20470;-53
2023/05/08 06:50:47;;;;;;;9.88;6.38;;;18.10;73.40;;;;;;10355412;28;20042;-53
2023/05/08 06:55:47;;;;;;;8.50;5.50;;;18.10;73.40;;;;;;10352862;28;20026;-50
2023/05/08 07:00:48;;;;;;;9.57;5.22;;;18.10;73.30;;;;;;10365785;28;20663;-51
2023/05/08 07:05:48;;;;;;;9.88;5.63;;;18.10;73.20;;;;;;10382262;28;20060;-51
2023/05/08 07:10:49;;;;;;;8.25;5.88;;;18.10;73.20;;;;;;10368170;28;20065;-48
2023/05/08 07:15:50;;;;;;;12.77;6.85;;;18.10;73.20;;;;;;10366250;28;20022;-49
2023/05/08 07:20:51;;;;;;;9.30;6.63;;;18.10;73.20;;;;;;10364182;28;20440;-51
2023/05/08 07:25:53;;;;;;;11.25;8.52;;;18.10;73.40;;;;;;10334949;28;20037;-50
2023/05/08 07:30:53;;;;;;;10.27;7.72;;;18.10;73.30;;;;;;10356829;28;20026;-51
2023/05/08 07:35:54;;;;;;;10.73;7.38;;;18.10;73.70;;;;;;10365799;28;20030;-51
2023/05/08 07:40:59;;;;;;;10.90;8.32;;;18.10;73.40;;;;;;10354421;28;20149;-51
2023/05/08 07:46:00;;;;;;;12.75;7.38;;;18.10;73.50;;;;;;10365054;28;20049;-52
2023/05/08 07:51:00;;;;;;;10.60;8.57;;;18.10;73.40;;;;;;10364383;28;20454;-52
2023/05/08 07:56:01;;;;;;;12.02;9.27;;;18.10;73.70;;;;;;10357689;28;20452;-51
2023/05/08 08:01:02;;;;;;;12.02;8.70;;;18.10;73.60;;;;;;10364913;28;20477;-49
2023/05/08 08:06:03;;;;;;;10.80;9.18;;;18.10;73.30;;;;;;10346764;28;20053;-48
2023/05/08 08:11:05;;;;;;;12.05;9.60;;;18.10;73.20;;;;;;10363734;28;20022;-51
2023/05/08 08:16:06;;;;;;;13.32;9.88;;;18.10;73.40;;;;;;10381341;28;20050;-52
2023/05/08 08:21:07;;;;;;;12.23;10.30;;;18.10;73.50;;;;;;10362017;28;20109;-50
2023/05/08 08:26:07;;;;;;;16.20;10.68;;;18.10;73.60;;;;;;10362565;28;20081;-51
2023/05/08 08:31:08;;;;;;;16.50;10.73;;;18.10;73.40;;;;;;10371099;28;20116;-53
2023/05/08 08:36:13;;;;;;;15.80;11.07;;;18.20;73.70;;;;;;10352590;28;20026;-53
2023/05/08 08:41:14;;;;;;;14.25;11.73;;;18.10;73.50;;;;;;10362012;28;20076;-53
2023/05/08 08:46:18;;;;;;;15.05;11.00;;;18.10;73.60;;;;;;10361760;28;20034;-53
2023/05/08 08:51:44;;;;;;;18.50;11.82;;;18.20;73.60;;;;;;10362614;28;20030;-51
2023/05/08 08:56:48;;;;;;;16.45;13.05;;;18.20;73.70;;;;;;10348254;28;20034;-52
2023/05/08 09:01:55;;;;;;;14.98;12.32;;;18.20;73.90;;;;;;10355596;28;20038;-53
2023/05/08 09:06:57;;;;;;;12.93;11.07;;;18.20;73.60;;;;;;10358569;28;20046;-50
2023/05/08 09:11:57;;;;;;;15.68;12.02;;;18.30;73.60;;;;;;10361885;28;20101;-51
2023/05/08 09:16:58;;;;;;;15.00;11.45;;;18.30;73.50;;;;;;10359196;28;20033;-50
2023/05/08 09:22:00;;;;;;;15.77;12.20;;;18.30;73.50;;;;;;10362007;28;20034;-51
2023/05/08 09:27:01;;;;;;;15.32;11.25;;;18.40;73.50;;;;;;10361083;28;20488;-50
2023/05/08 09:32:01;;;;;;;14.55;12.23;;;18.40;73.60;;;;;;10371489;28;20160;-52
2023/05/08 09:37:08;;;;;;;13.88;11.32;;;18.40;73.50;;;;;;10344671;28;20030;-49
2023/05/08 09:42:09;;;;;;;14.52;12.00;;;18.40;73.50;;;;;;10360116;28;20030;-48
2023/05/08 09:47:21;;;;;;;13.82;11.05;;;18.50;73.50;;;;;;10360354;28;20024;-52
2023/05/08 09:52:22;;;;;;;13.35;11.32;;;18.50;73.50;;;;;;10359343;28;20030;-48
2023/05/08 09:57:23;;;;;;;11.57;10.30;;;18.50;73.30;;;;;;10360461;28;20038;-51
2023/05/08 10:02:25;;;;;;;13.05;9.85;;;18.50;73.30;;;;;;10353307;28;20022;-51
2023/05/08 10:07:35;;;;;;;14.25;11.80;;;18.50;73.40;;;;;;10359751;28;20046;-49
2023/05/08 10:12:36;;;;;;;13.38;10.70;;;18.50;73.40;;;;;;10359293;28;20018;-52
2023/05/08 10:17:49;;;;;;;12.38;11.07;;;18.50;73.40;;;;;;10359416;28;20026;-51
2023/05/08 10:22:51;;;;;;;14.23;10.93;;;18.40;73.30;;;;;;10351288;28;20117;-51
2023/05/08 10:28:05;;;;;;;14.93;11.25;;;18.50;73.50;;;;;;10365477;28;20022;-50
2023/05/08 10:33:12;;;;;;;12.48;11.27;;;18.50;73.40;;;;;;10373614;28;20030;-51
2023/05/08 10:38:15;;;;;;;14.25;10.40;;;18.50;73.40;;;;;;10355767;28;20026;-54
2023/05/08 10:43:17;;;;;;;12.60;10.95;;;18.50;73.40;;;;;;10366049;28;20025;-50
2023/05/08 10:48:36;;;;;;;11.63;10.43;;;18.50;73.40;;;;;;10359890;28;20041;-51
2023/05/08 10:54:03;;;;;;;11.55;9.93;;;18.60;73.40;;;;;;10366735;28;20021;-48
2023/05/08 10:59:05;;;;;;;14.63;11.35;;;18.60;73.30;;;;;;10364870;28;20408;-53
2023/05/08 11:04:21;;;;;;;14.30;11.32;;;18.60;73.20;;;;;;10362081;28;20108;-51
2023/05/08 11:09:41;;;;;;;13.00;11.68;;;18.70;73.30;;;;;;10381853;28;20060;-50
2023/05/08 11:14:52;;;;;;;12.57;11.27;;;18.70;73.20;;;;;;10361728;28;20409;-53
2023/05/08 11:19:59;;;;;;;11.90;10.20;;;18.70;73.20;;;;;;10364406;28;20042;-50
2023/05/08 11:25:09;;;;;;;14.05;12.55;;;18.80;73.20;;;;;;10362899;28;20014;-52
2023/05/08 11:30:36;;;;;;;13.90;12.00;;;18.80;73.30;;;;;;10364447;28;20025;-55
2023/05/08 11:36:12;;;;;;;14.55;12.30;;;18.80;73.20;;;;;;10370463;28;20025;-53
2023/05/08 11:41:23;;;;;;;17.27;12.18;;;18.80;73.30;;;;;;10362490;28;20053;-54
2023/05/08 11:46:41;;;;;;;14.38;12.88;;;18.80;73.40;;;;;;10362986;28;20018;-50
2023/05/08 11:51:57;;;;;;;14.23;11.68;;;18.80;73.50;;;;;;10362943;28;20540;-51
2023/05/08 11:56:58;;;;;;;17.65;12.38;;;18.90;73.60;;;;;;10363155;28;20104;-52
2023/05/08 12:01:59;;;;;;;16.38;13.35;;;18.90;73.30;;;;;;10340753;28;20408;-50
2023/05/08 12:07:01;;;;;;;15.57;12.52;;;18.90;73.30;;;;;;10366251;28;20375;-50
2023/05/08 12:12:01;;;;;;;13.95;11.98;;;18.90;73.50;;;;;;10364082;28;20014;-49
2023/05/08 12:17:02;;;;;;;18.23;12.25;;;18.90;73.50;;;;;;10345375;28;20037;-50
2023/05/08 12:22:03;;;;;;;14.95;12.60;;;18.90;73.50;;;;;;10347339;28;20491;-52
2023/05/08 12:27:03;;;;;;;15.90;12.73;;;18.90;73.70;;;;;;10337844;28;20431;-54
2023/05/08 12:32:04;;;;;;;14.63;12.18;;;18.90;73.70;;;;;;10389756;28;20029;-51
2023/05/08 12:37:05;;;;;;;14.05;12.48;;;18.90;73.50;;;;;;10336100;28;20040;-54
2023/05/08 12:42:06;;;;;;;15.98;12.38;;;18.90;73.50;;;;;;10352271;28;20036;-53
2023/05/08 12:47:06;;;;;;;15.23;11.48;;;19.00;73.50;;;;;;10352939;28;20314;-53
2023/05/08 12:52:12;;;;;;;14.60;11.50;;;19.00;73.40;;;;;;10360410;28;20117;-53
2023/05/08 12:57:15;;;;;;;13.00;10.80;;;19.00;73.50;;;;;;10352158;28;20026;-55
2023/05/08 13:02:22;;;;;;;15.77;11.88;;;19.00;73.60;;;;;;10363410;28;20599;-54
2023/05/08 13:07:23;;;;;;;14.32;10.70;;;19.00;73.60;;;;;;10360250;28;20050;-54
2023/05/08 13:12:23;;;;;;;12.18;10.98;;;19.10;73.60;;;;;;10361314;28;20139;-53
2023/05/08 13:17:24;;;;;;;13.88;10.55;;;19.10;73.50;;;;;;10356507;28;20036;-54
2023/05/08 13:22:25;;;;;;;14.30;11.63;;;19.10;73.40;;;;;;10339776;28;20030;-54
2023/05/08 13:27:26;;;;;;;20.48;11.25;;;19.20;73.40;;;;;;10369502;28;20054;-55
2023/05/08 13:32:26;;;;;;;16.20;11.63;;;19.20;73.30;;;;;;10372249;28;20114;-55
2023/05/08 13:37:27;;;;;;;13.25;11.07;;;19.20;73.30;;;;;;10341779;28;20466;-54
2023/05/08 13:42:28;;;;;;;12.20;10.82;;;19.20;73.30;;;;;;10360153;28;20029;-54
2023/05/08 13:47:29;;;;;;;12.75;10.88;;;19.20;73.30;;;;;;10329904;28;20541;-55
2023/05/08 13:52:29;;;;;;;12.48;10.80;;;19.20;73.20;;;;;;10358933;28;20480;-52
2023/05/08 13:57:30;;;;;;;12.07;10.77;;;19.10;73.20;;;;;;10367086;28;20036;-54
2023/05/08 14:02:31;;;;;;;13.20;11.50;;;19.20;73.20;;;;;;10350877;28;20097;-54
2023/05/08 14:07:31;;;;;;;11.32;9.00;;;19.20;73.20;;;;;;10367502;28;20034;-54
2023/05/08 14:12:35;;;;;;;11.07;9.98;;;19.20;73.20;;;;;;10367704;28;20409;-54
2023/05/08 14:17:36;;;;;;;11.68;10.07;;;19.20;73.10;;;;;;10368107;28;20121;-53
2023/05/08 14:22:37;;;;;;;11.80;9.95;;;19.30;73.10;;;;;;10351201;28;20072;-55
2023/05/08 14:27:38;;;;;;;12.25;9.82;;;19.20;73.00;;;;;;10366664;28;20636;-55
2023/05/08 14:32:38;;;;;;;12.40;9.32;;;19.20;73.00;;;;;;10378632;28;20022;-52
2023/05/08 14:37:39;;;;;;;11.48;9.30;;;19.20;73.00;;;;;;10383833;28;20527;-54
2023/05/08 14:42:40;;;;;;;11.13;10.02;;;19.20;73.00;;;;;;10383279;28;20551;-55
2023/05/08 14:47:41;;;;;;;10.93;8.85;;;19.20;73.00;;;;;;10367816;28;20107;-54
2023/05/08 14:52:41;;;;;;;12.05;9.48;;;19.20;72.90;;;;;;10339996;28;20018;-54
2023/05/08 14:57:42;;;;;;;11.60;10.40;;;19.20;72.90;;;;;;10367484;28;20091;-53
2023/05/08 15:02:43;;;;;;;11.15;9.98;;;19.20;73.40;;;;;;10365831;28;20521;-53
2023/05/08 15:07:44;;;;;;;9.60;8.60;;;19.30;73.00;;;;;;10364563;28;20032;-52
2023/05/08 15:12:45;;;;;;;14.48;11.27;;;19.30;72.90;;;;;;10364698;28;20048;-51
2023/05/08 15:17:45;;;;;;;12.75;9.85;;;19.30;73.20;;;;;;10364187;28;20014;-53
2023/05/08 15:22:47;;;;;;;14.70;10.82;;;19.30;72.70;;;;;;10365295;28;20057;-53
2023/05/08 15:27:51;;;;;;;14.90;11.45;;;19.30;72.50;;;;;;10364326;28;20612;-54
2023/05/08 15:32:52;;;;;;;28.15;11.90;;;19.20;72.60;;;;;;10373627;28;20026;-55
2023/05/08 15:37:52;;;;;;;33.45;13.05;;;19.30;72.80;;;;;;10364719;28;20057;-50
2023/05/08 15:42:54;;;;;;;32.95;14.30;;;19.30;73.30;;;;;;10364363;28;20102;-54
2023/05/08 15:47:55;;;;;;;46.10;16.08;;;19.20;73.20;;;;;;10364434;28;20101;-55
2023/05/08 15:52:55;;;;;;;38.67;14.68;;;19.30;73.50;;;;;;10364203;28;20117;-53
2023/05/08 15:57:56;;;;;;;34.10;15.65;;;19.30;73.40;;;;;;10364865;28;20138;-52
2023/05/08 16:02:57;;;;;;;34.05;19.90;;;19.40;73.50;;;;;;10364492;28;20050;-52
2023/05/08 16:07:57;;;;;;;33.85;16.67;;;19.40;73.80;;;;;;10363671;28;20475;-52
2023/05/08 16:12:58;;;;;;;38.72;17.23;;;19.60;74.70;;;;;;10362714;28;20622;-53
2023/05/08 16:17:59;;;;;;;26.88;17.10;;;19.50;74.80;;;;;;10363226;28;20036;-53
2023/05/08 16:23:00;;;;;;;29.52;16.13;;;19.50;74.60;;;;;;10363578;28;20041;-53
2023/05/08 16:28:01;;;;;;;21.65;13.13;;;19.50;75.20;;;;;;10363168;28;20035;-52
2023/05/08 16:33:01;;;;;;;32.15;14.02;;;19.30;74.20;;;;;;10375246;28;20152;-53
2023/05/08 16:38:03;;;;;;;29.35;13.95;;;19.20;74.00;;;;;;10335886;28;20049;-53
2023/05/08 16:43:04;;;;;;;19.77;14.20;;;19.20;73.90;;;;;;10362468;28;20018;-51
2023/05/08 16:48:04;;;;;;;23.77;16.80;;;19.20;74.00;;;;;;10362354;28;20022;-52
2023/05/08 16:53:05;;;;;;;31.23;18.00;;;19.20;74.70;;;;;;10362140;28;20097;-53
2023/05/08 16:58:07;;;;;;;31.30;15.65;;;19.30;74.90;;;;;;10361678;28;20120;-54
2023/05/08 17:03:07;;;;;;;33.00;20.13;;;19.30;74.90;;;;;;10361424;28;20556;-52
2023/05/08 17:08:10;;;;;;;21.58;14.23;;;19.30;75.30;;;;;;10361307;28;20145;-55
2023/05/08 17:13:11;;;;;;;22.48;12.45;;;19.20;74.60;;;;;;10362715;28;20029;-52
2023/05/08 17:18:11;;;;;;;22.50;14.40;;;19.20;74.60;;;;;;10360700;28;20042;-52
2023/05/08 17:23:12;;;;;;;24.33;15.27;;;19.20;74.40;;;;;;10361248;28;20100;-51
2023/05/08 17:28:13;;;;;;;24.02;16.95;;;19.20;74.40;;;;;;10334178;28;20037;-53
2023/05/08 17:33:13;;;;;;;22.63;14.93;;;19.20;74.30;;;;;;10373152;28;20021;-54
2023/05/08 17:38:14;;;;;;;26.33;15.52;;;19.20;74.20;;;;;;10361439;28;20041;-51
2023/05/08 17:43:15;;;;;;;26.90;15.40;;;19.20;74.40;;;;;;10344824;28;20041;-49
2023/05/08 17:48:16;;;;;;;20.77;14.80;;;19.20;74.40;;;;;;10362134;28;20061;-51
2023/05/08 17:53:16;;;;;;;25.98;17.23;;;19.20;74.40;;;;;;10362217;28;20168;-51
2023/05/08 17:58:17;;;;;;;25.48;16.60;;;19.10;74.40;;;;;;10360323;28;20068;-52
2023/05/08 18:03:18;;;;;;;26.70;15.40;;;19.20;74.70;;;;;;10360169;28;20053;-51
2023/05/08 18:08:18;;;;;;;23.02;16.02;;;19.20;74.30;;;;;;10361539;28;20097;-52
2023/05/08 18:13:19;;;;;;;22.33;14.68;;;19.20;74.50;;;;;;10358585;28;20461;-52
2023/05/08 18:18:19;;;;;;;27.00;17.80;;;19.20;74.40;;;;;;10356979;28;20113;-54
2023/05/08 18:23:21;;;;;;;27.58;14.70;;;19.20;74.80;;;;;;10371041;28;20097;-56
2023/05/08 18:28:21;;;;;;;26.80;18.45;;;19.30;75.10;;;;;;10362754;28;20843;-55
2023/05/08 18:33:22;;;;;;;38.55;16.33;;;19.20;74.80;;;;;;10373281;28;20104;-54
2023/05/08 18:38:23;;;;;;;29.00;17.10;;;19.20;74.80;;;;;;10361067;28;20022;-53
2023/05/08 18:43:23;;;;;;;23.92;17.45;;;19.20;74.80;;;;;;10365972;28;20035;-53
2023/05/08 18:48:25;;;;;;;27.23;17.00;;;19.20;75.10;;;;;;10368778;28;20416;-53
2023/05/08 18:53:26;;;;;;;27.42;17.58;;;19.20;75.20;;;;;;10367238;28;20022;-54
2023/05/08 18:58:27;;;;;;;26.35;16.73;;;19.20;75.00;;;;;;10375521;28;20550;-54
2023/05/08 19:03:28;;;;;;;32.60;15.32;;;19.20;75.30;;;;;;10364923;28;20034;-55
2023/05/08 19:08:29;;;;;;;29.40;17.45;;;19.20;74.90;;;;;;10365980;28;20452;-55
2023/05/08 19:13:29;;;;;;;27.17;18.02;;;19.20;74.90;;;;;;10367217;28;20089;-56
2023/05/08 19:18:30;;;;;;;23.92;15.85;;;19.20;75.00;;;;;;10366759;28;20125;-55
2023/05/08 19:23:31;;;;;;;24.25;15.77;;;19.10;74.80;;;;;;10367377;28;20572;-56
2023/05/08 19:28:33;;;;;;;21.77;14.73;;;19.00;74.80;;;;;;10366832;28;20095;-56
2023/05/08 19:33:34;;;;;;;19.20;13.73;;;19.10;74.70;;;;;;10359596;28;20018;-55
2023/05/08 19:38:36;;;;;;;22.90;14.30;;;19.00;74.80;;;;;;10363237;28;20044;-55
2023/05/08 19:43:37;;;;;;;20.15;13.60;;;19.00;74.80;;;;;;10364197;28;20084;-54
2023/05/08 19:48:38;;;;;;;18.55;13.88;;;19.00;74.80;;;;;;10362997;28;20144;-54
2023/05/08 19:53:39;;;;;;;22.63;16.35;;;19.00;74.80;;;;;;10361905;28;20026;-52
2023/05/08 19:58:40;;;;;;;21.15;15.00;;;19.00;74.80;;;;;;10361969;28;20475;-53
2023/05/08 20:03:40;;;;;;;20.63;14.77;;;19.00;74.60;;;;;;10362122;28;20462;-56
2023/05/08 20:08:41;;;;;;;25.52;16.10;;;19.00;74.60;;;;;;10361490;28;20033;-55
2023/05/08 20:13:42;;;;;;;24.48;15.70;;;18.90;74.50;;;;;;10363603;28;20382;-54
2023/05/08 20:18:43;;;;;;;21.55;16.10;;;18.90;74.60;;;;;;10365882;28;20040;-54
2023/05/08 20:23:44;;;;;;;18.45;14.25;;;19.00;74.60;;;;;;10335374;28;20014;-55
2023/05/08 20:28:45;;;;;;;21.17;14.77;;;18.90;74.60;;;;;;10364266;28;20026;-56
2023/05/08 20:33:45;;;;;;;19.45;14.32;;;18.90;74.60;;;;;;10375893;28;20052;-55
2023/05/08 20:38:46;;;;;;;21.17;15.98;;;18.90;74.60;;;;;;10364985;28;20045;-54
2023/05/08 20:43:47;;;;;;;20.85;14.25;;;18.90;74.60;;;;;;10364188;28;20638;-56
2023/05/08 20:48:48;;;;;;;18.45;15.20;;;18.90;74.60;;;;;;10364799;28;20057;-56
2023/05/08 20:53:48;;;;;;;22.15;16.23;;;18.90;74.60;;;;;;10363445;28;20026;-54
2023/05/08 20:58:49;;;;;;;23.92;17.50;;;18.90;74.50;;;;;;10363337;28;20065;-55
2023/05/08 21:03:50;;;;;;;20.38;15.20;;;18.90;74.60;;;;;;10361669;28;20121;-55
2023/05/08 21:08:51;;;;;;;18.23;15.43;;;18.90;74.50;;;;;;10364656;28;20171;-55
2023/05/08 21:13:52;;;;;;;21.95;15.55;;;18.90;74.40;;;;;;10363021;28;20108;-56
2023/05/08 21:18:52;;;;;;;22.77;16.08;;;18.90;74.30;;;;;;10338169;28;20397;-56
2023/05/08 21:23:53;;;;;;;21.48;16.08;;;18.90;74.30;;;;;;10339589;28;20009;-55
2023/05/08 21:28:57;;;;;;;19.73;15.98;;;18.80;74.30;;;;;;10348998;28;20076;-56
2023/05/08 21:33:58;;;;;;;21.83;17.02;;;18.90;74.30;;;;;;10361819;28;20022;-55
2023/05/08 21:38:58;;;;;;;23.70;17.13;;;18.80;74.20;;;;;;10359866;28;20030;-53
2023/05/08 21:43:59;;;;;;;22.35;16.10;;;18.80;74.20;;;;;;10361810;28;20122;-56
2023/05/08 21:48:59;;;;;;;24.98;17.92;;;18.80;74.20;;;;;;10346073;28;20101;-56
2023/05/08 21:54:00;;;;;;;21.73;16.77;;;18.80;74.10;;;;;;10362030;28;20112;-55
2023/05/08 21:59:01;;;;;;;24.30;15.32;;;18.80;74.10;;;;;;10361929;28;20121;-55
2023/05/08 22:04:01;;;;;;;20.08;15.45;;;18.80;74.10;;;;;;10361600;28;20456;-55
2023/05/08 22:09:02;;;;;;;19.73;15.57;;;18.80;74.00;;;;;;10361839;28;20483;-53
2023/05/08 22:14:03;;;;;;;26.10;17.50;;;18.80;74.00;;;;;;10362886;28;20119;-56
2023/05/08 22:19:04;;;;;;;21.17;15.77;;;18.80;74.00;;;;;;10369207;28;20685;-54
2023/05/08 22:24:05;;;;;;;18.88;14.95;;;18.80;74.00;;;;;;10359837;28;20381;-53
2023/05/08 22:29:05;;;;;;;19.23;15.10;;;18.80;73.80;;;;;;10368950;28;20036;-52
2023/05/08 22:34:06;;;;;;;19.85;15.23;;;18.80;73.80;;;;;;10375242;28;20025;-54
2023/05/08 22:39:11;;;;;;;18.48;15.10;;;18.80;73.80;;;;;;10368771;28;20057;-55
2023/05/08 22:44:11;;;;;;;21.20;15.73;;;18.80;73.70;;;;;;10368327;28;20065;-55
2023/05/08 22:49:12;;;;;;;19.85;15.45;;;18.80;73.70;;;;;;10359094;28;20156;-55
2023/05/08 22:54:13;;;;;;;17.50;14.73;;;18.80;73.70;;;;;;10366948;28;20053;-55
2023/05/08 22:59:14;;;;;;;21.90;14.82;;;18.70;73.70;;;;;;10367762;28;20032;-54
2023/05/08 23:04:14;;;;;;;18.80;13.95;;;18.70;73.70;;;;;;10368166;28;20448;-56
2023/05/08 23:09:15;;;;;;;19.77;13.55;;;18.70;73.70;;;;;;10383957;28;20140;-56
2023/05/08 23:14:16;;;;;;;19.17;13.43;;;18.70;73.60;;;;;;10344566;28;20026;-53
2023/05/08 23:19:16;;;;;;;19.08;14.20;;;18.70;73.60;;;;;;10368312;28;20072;-56
2023/05/08 23:24:17;;;;;;;18.58;14.23;;;18.70;73.60;;;;;;10346677;28;20018;-56
2023/05/08 23:29:18;;;;;;;17.55;13.65;;;18.80;73.60;;;;;;10367105;28;20106;-56
2023/05/08 23:34:18;;;;;;;15.52;12.18;;;18.70;73.60;;;;;;10370774;28;20125;-55
2023/05/08 23:39:19;;;;;;;17.08;12.93;;;18.70;73.50;;;;;;10367852;28;20085;-56
2023/05/08 23:44:20;;;;;;;16.08;12.70;;;18.70;73.50;;;;;;10365649;28;20079;-55
2023/05/08 23:49:21;;;;;;;16.67;13.05;;;18.70;73.50;;;;;;10365862;28;20083;-56
2023/05/08 23:54:21;;;;;;;15.18;12.18;;;18.70;73.40;;;;;;10366788;28;20537;-55
2023/05/08 23:59:22;;;;;;;17.98;14.05;;;18.70;73.40;;;;;;10381969;28;20540;-55
